createdAt,value
2023-04-20T00:00:57.430Z,10.40
2023-04-20T00:03:24.883Z,9.52
2023-04-20T00:05:51.864Z,9.90
2023-04-20T00:08:18.690Z,10.15
2023-04-20T00:10:48.368Z,10.10
2023-04-20T00:13:15.938Z,10.25
2023-04-20T00:15:43.549Z,9.85
2023-04-20T00:18:10.890Z,9.63
2023-04-20T00:20:39.129Z,10.02
2023-04-20T00:23:07.404Z,11.00
2023-04-20T00:25:34.461Z,10.38
2023-04-20T00:28:01.376Z,9.82
2023-04-20T00:30:28.323Z,10.68
2023-04-20T00:32:55.424Z,10.90
2023-04-20T00:35:22.577Z,11.70
2023-04-20T00:37:53.154Z,12.15
2023-04-20T00:40:22.786Z,12.85
2023-04-20T00:42:50.339Z,12.27
2023-04-20T00:45:18.292Z,12.88
2023-04-20T00:47:48.333Z,11.82
2023-04-20T00:50:16.573Z,13.35
2023-04-20T00:52:44.998Z,13.48
2023-04-20T00:55:12.933Z,13.50
2023-04-20T00:57:40.475Z,13.45
2023-04-20T01:00:11.126Z,14.27
2023-04-20T01:02:43.110Z,14.68
2023-04-20T01:05:10.848Z,15.98
2023-04-20T01:07:38.030Z,16.02
2023-04-20T01:10:06.677Z,15.57
2023-04-20T01:12:34.664Z,16.25
2023-04-20T01:15:02.919Z,18.10
2023-04-20T01:17:30.014Z,18.92
2023-04-20T01:19:56.870Z,20.10
2023-04-20T01:22:23.884Z,17.73
2023-04-20T01:24:50.934Z,19.40
2023-04-20T01:27:17.730Z,18.65
2023-04-20T01:29:44.834Z,16.48
2023-04-20T01:32:12.376Z,16.30
2023-04-20T01:34:39.337Z,16.70
2023-04-20T01:37:08.369Z,19.67
2023-04-20T01:39:36.380Z,19.95
2023-04-20T01:42:03.390Z,20.65
2023-04-20T01:44:33.809Z,19.98
2023-04-20T01:47:01.279Z,21.60
2023-04-20T01:49:28.653Z,23.13
2023-04-20T01:51:55.966Z,23.40
2023-04-20T01:54:25.667Z,24.90
2023-04-20T01:56:55.017Z,21.92
2023-04-20T01:59:22.748Z,23.60
2023-04-20T02:01:49.936Z,20.45
2023-04-20T02:04:17.609Z,19.92
2023-04-20T02:06:45.640Z,22.20
2023-04-20T02:09:12.523Z,21.90
2023-04-20T02:11:42.395Z,19.38
2023-04-20T02:14:10.357Z,19.35
2023-04-20T02:16:38.051Z,18.52
2023-04-20T02:19:05.090Z,18.63
2023-04-20T02:21:31.883Z,17.52
2023-04-20T02:23:59.102Z,18.10
2023-04-20T02:26:27.309Z,17.10
2023-04-20T02:28:54.575Z,16.60
2023-04-20T02:31:21.465Z,16.83
2023-04-20T02:33:50.040Z,16.73
2023-04-20T02:36:16.773Z,18.55
2023-04-20T02:38:43.858Z,16.73
2023-04-20T02:41:10.997Z,15.98
2023-04-20T02:43:38.838Z,15.82
2023-04-20T02:46:06.435Z,15.30
2023-04-20T02:48:33.774Z,15.35
2023-04-20T02:51:01.921Z,14.05
2023-04-20T02:53:34.063Z,13.02
2023-04-20T02:56:12.380Z,13.02
2023-04-20T02:58:43.701Z,12.52
2023-04-20T03:01:36.576Z,12.25
2023-04-20T03:04:24.023Z,11.90
2023-04-20T03:07:10.250Z,12.30
2023-04-20T03:09:39.520Z,10.93
2023-04-20T03:12:26.832Z,11.30
2023-04-20T03:15:19.906Z,10.85
2023-04-20T03:17:56.898Z,11.52
2023-04-20T03:20:24.265Z,11.15
2023-04-20T03:22:51.575Z,22.50
2023-04-20T03:25:20.725Z,16.70
2023-04-20T03:27:58.183Z,18.25
2023-04-20T03:30:25.573Z,23.67
2023-04-20T03:32:59.396Z,22.92
2023-04-20T03:35:27.055Z,22.95
2023-04-20T03:37:53.835Z,25.08
2023-04-20T03:40:21.021Z,25.40
2023-04-20T03:42:48.058Z,25.77
2023-04-20T03:45:14.981Z,25.15
2023-04-20T03:47:42.299Z,22.35
2023-04-20T03:50:09.703Z,18.92
2023-04-20T03:52:38.773Z,23.80
2023-04-20T03:55:05.800Z,20.35
2023-04-20T03:57:33.624Z,22.38
2023-04-20T04:00:02.281Z,25.42
2023-04-20T04:02:45.989Z,21.75
2023-04-20T04:05:15.886Z,22.13
2023-04-20T04:07:42.795Z,19.65
2023-04-20T04:10:10.513Z,20.15
2023-04-20T04:12:38.732Z,21.70
2023-04-20T04:15:06.228Z,21.13
2023-04-20T04:17:37.312Z,22.00
2023-04-20T04:20:08.165Z,21.50
2023-04-20T04:22:35.045Z,25.10
2023-04-20T04:25:34.203Z,21.75
2023-04-20T04:28:01.327Z,25.30
2023-04-20T04:30:30.451Z,21.95
2023-04-20T04:32:57.744Z,22.75
2023-04-20T04:35:24.652Z,21.33
2023-04-20T04:37:52.773Z,21.48
2023-04-20T04:40:20.246Z,21.40
2023-04-20T04:42:51.315Z,20.70
2023-04-20T04:45:18.652Z,19.98
2023-04-20T04:47:46.434Z,20.98
2023-04-20T04:50:13.778Z,18.88
2023-04-20T04:52:40.904Z,20.05
2023-04-20T04:55:09.267Z,19.55
2023-04-20T04:57:36.305Z,19.88
2023-04-20T05:00:07.035Z,20.23
2023-04-20T05:02:34.571Z,20.02
2023-04-20T05:05:02.046Z,20.10
2023-04-20T05:07:29.238Z,20.02
2023-04-20T05:09:55.977Z,19.55
2023-04-20T05:12:22.795Z,21.42
2023-04-20T05:14:49.518Z,21.85
2023-04-20T05:17:16.190Z,22.00
2023-04-20T05:19:43.019Z,24.27
2023-04-20T05:22:09.944Z,24.73
2023-04-20T05:24:36.726Z,23.92
2023-04-20T05:27:04.484Z,23.60
2023-04-20T05:29:32.593Z,23.65
2023-04-20T05:31:59.721Z,23.92
2023-04-20T05:34:26.787Z,24.90
2023-04-20T05:36:54.820Z,26.67
2023-04-20T05:39:22.065Z,27.52
2023-04-20T05:41:52.179Z,24.73
2023-04-20T05:44:19.044Z,24.38
2023-04-20T05:46:45.979Z,23.10
2023-04-20T05:49:12.911Z,21.63
2023-04-20T05:51:42.528Z,23.83
2023-04-20T05:54:12.560Z,22.17
2023-04-20T05:56:39.617Z,20.17
2023-04-20T05:59:06.798Z,18.98
2023-04-20T06:01:36.484Z,17.65
2023-04-20T06:04:06.237Z,15.90
2023-04-20T06:06:37.699Z,15.77
2023-04-20T06:09:05.196Z,21.17
2023-04-20T06:11:34.549Z,20.08
2023-04-20T06:14:10.048Z,15.90
2023-04-20T06:16:37.388Z,16.10
2023-04-20T06:19:05.420Z,14.30
2023-04-20T06:21:36.491Z,12.07
2023-04-20T06:24:05.972Z,12.25
2023-04-20T06:26:35.854Z,7.43
2023-04-20T06:29:04.412Z,7.72
2023-04-20T06:31:41.589Z,10.57
2023-04-20T06:34:11.884Z,15.30
2023-04-20T06:36:59.440Z,7.60
2023-04-20T06:39:29.199Z,9.57
2023-04-20T06:41:56.859Z,9.15
2023-04-20T06:44:24.162Z,9.88
2023-04-20T06:46:51.858Z,7.22
2023-04-20T06:49:18.883Z,12.95
2023-04-20T06:51:45.850Z,9.05
2023-04-20T06:54:13.350Z,13.35
2023-04-20T06:56:43.125Z,8.48
2023-04-20T06:59:11.157Z,14.05
2023-04-20T07:01:37.973Z,9.93
2023-04-20T07:04:05.030Z,11.27
2023-04-20T07:06:33.921Z,17.42
2023-04-20T07:11:56.131Z,21.30
2023-04-20T07:14:25.835Z,16.85
2023-04-20T07:16:55.762Z,13.93
2023-04-20T07:19:29.533Z,14.82
2023-04-20T07:21:59.058Z,17.15
2023-04-20T07:24:26.020Z,10.45
2023-04-20T07:26:52.892Z,11.02
2023-04-20T07:29:19.921Z,9.13
2023-04-20T07:31:46.987Z,10.27
2023-04-20T07:34:13.759Z,10.07
2023-04-20T07:36:40.723Z,9.65
2023-04-20T07:39:08.205Z,13.35
2023-04-20T07:41:36.289Z,11.40
2023-04-20T07:44:02.969Z,10.88
2023-04-20T07:46:29.764Z,11.63
2023-04-20T07:48:56.704Z,9.32
2023-04-20T07:51:23.463Z,11.45
2023-04-20T07:53:50.349Z,11.10
2023-04-20T07:56:17.356Z,12.38
2023-04-20T07:58:44.173Z,9.98
2023-04-20T08:01:11.310Z,11.05
2023-04-20T08:03:38.273Z,11.20
2023-04-20T08:06:05.636Z,10.95
2023-04-20T08:08:32.425Z,11.43
2023-04-20T08:10:59.273Z,12.85
2023-04-20T08:13:27.587Z,14.10
2023-04-20T08:15:54.536Z,14.98
2023-04-20T08:18:21.533Z,13.70
2023-04-20T08:20:48.368Z,14.85
2023-04-20T08:23:15.051Z,16.58
2023-04-20T08:25:41.761Z,16.90
2023-04-20T08:28:11.991Z,16.73
2023-04-20T08:30:41.213Z,16.15
2023-04-20T08:33:08.174Z,19.83
2023-04-20T08:35:35.000Z,14.38
2023-04-20T08:38:02.893Z,13.73
2023-04-20T08:40:30.463Z,16.73
2023-04-20T08:42:57.657Z,14.02
2023-04-20T08:45:24.486Z,15.30
2023-04-20T08:47:52.161Z,14.45
2023-04-20T08:50:19.881Z,14.40
2023-04-20T08:52:46.909Z,15.20
2023-04-20T08:55:17.602Z,13.75
2023-04-20T08:57:44.620Z,12.68
2023-04-20T09:00:13.562Z,12.90
2023-04-20T09:02:53.832Z,13.00
2023-04-20T09:05:31.073Z,12.45
2023-04-20T09:07:58.996Z,11.82
2023-04-20T09:10:28.993Z,13.07
2023-04-20T09:12:55.701Z,12.55
2023-04-20T09:15:29.351Z,14.20
2023-04-20T09:20:33.109Z,25.02
2023-04-20T09:23:16.587Z,13.20
2023-04-20T09:25:46.126Z,12.63
2023-04-20T09:28:14.036Z,11.63
2023-04-20T09:30:45.382Z,11.10
2023-04-20T09:33:14.420Z,9.87
2023-04-20T09:35:42.472Z,10.55
2023-04-20T09:38:10.006Z,12.10
2023-04-20T09:40:37.195Z,11.95
2023-04-20T09:43:15.442Z,11.45
2023-04-20T09:45:42.653Z,12.35
2023-04-20T09:48:09.671Z,11.57
2023-04-20T09:50:48.561Z,11.60
2023-04-20T09:53:17.714Z,13.80
2023-04-20T09:55:48.700Z,12.23
2023-04-20T09:58:17.876Z,11.50
2023-04-20T10:00:44.765Z,11.95
2023-04-20T10:03:12.717Z,11.65
2023-04-20T10:05:39.918Z,11.40
2023-04-20T10:08:06.870Z,10.85
2023-04-20T10:10:44.341Z,10.95
2023-04-20T10:13:11.945Z,10.43
2023-04-20T10:15:41.073Z,9.60
2023-04-20T10:18:20.405Z,9.82
2023-04-20T10:20:47.388Z,9.93
2023-04-20T10:23:18.922Z,14.30
2023-04-20T10:25:55.552Z,9.48
2023-04-20T10:28:22.376Z,11.10
2023-04-20T10:30:52.983Z,10.80
2023-04-20T10:33:20.199Z,11.77
2023-04-20T10:35:50.740Z,11.07
2023-04-20T10:38:33.013Z,10.82
2023-04-20T10:41:09.819Z,11.52
2023-04-20T10:43:39.114Z,12.20
2023-04-20T10:46:15.410Z,13.23
2023-04-20T10:48:55.513Z,13.98
2023-04-20T10:51:22.948Z,11.40
2023-04-20T10:54:05.188Z,11.60
2023-04-20T10:56:42.461Z,11.32
2023-04-20T10:59:11.383Z,15.80
2023-04-20T11:01:39.011Z,11.30
2023-04-20T11:04:07.724Z,11.48
2023-04-20T11:06:35.123Z,12.60
2023-04-20T11:09:02.241Z,11.18
2023-04-20T11:11:29.662Z,10.50
2023-04-20T11:14:07.846Z,9.07
2023-04-20T11:16:50.530Z,10.52
2023-04-20T11:19:25.087Z,12.02
2023-04-20T11:22:07.234Z,11.75
2023-04-20T11:24:34.571Z,11.85
2023-04-20T11:27:02.412Z,12.02
2023-04-20T11:29:31.714Z,11.90
2023-04-20T11:32:00.953Z,11.10
2023-04-20T11:34:31.557Z,11.13
2023-04-20T11:37:03.794Z,9.57
2023-04-20T11:39:31.071Z,10.82
2023-04-20T11:41:58.796Z,11.02
2023-04-20T11:44:26.413Z,11.18
2023-04-20T11:46:54.479Z,10.57
2023-04-20T11:49:21.952Z,13.35
2023-04-20T11:51:49.273Z,11.95
2023-04-20T11:54:16.315Z,11.73
2023-04-20T11:56:44.880Z,12.90
2023-04-20T11:59:12.354Z,11.30
2023-04-20T12:01:41.364Z,11.07
2023-04-20T12:04:18.700Z,12.70
2023-04-20T12:06:46.364Z,13.68
2023-04-20T12:09:17.242Z,11.52
2023-04-20T12:11:44.682Z,11.23
2023-04-20T12:14:11.827Z,10.88
2023-04-20T12:16:39.114Z,11.25
2023-04-20T12:19:06.225Z,11.23
2023-04-20T12:21:36.441Z,12.75
2023-04-20T12:24:06.081Z,12.82
2023-04-20T12:26:38.747Z,14.02
2023-04-20T12:29:06.221Z,10.38
2023-04-20T12:31:36.733Z,11.20
2023-04-20T12:34:04.323Z,10.95
2023-04-20T12:36:32.524Z,11.68
2023-04-20T12:38:59.995Z,12.50
2023-04-20T12:41:27.649Z,11.00
2023-04-20T12:43:54.770Z,10.63
2023-04-20T12:46:21.941Z,12.60
2023-04-20T12:48:49.258Z,11.95
2023-04-20T12:51:19.349Z,13.00
2023-04-20T12:53:48.785Z,10.88
2023-04-20T12:56:19.021Z,11.10
2023-04-20T12:58:48.678Z,12.00
2023-04-20T13:01:16.022Z,13.65
2023-04-20T13:03:43.525Z,11.15
2023-04-20T13:06:12.960Z,11.02
2023-04-20T13:08:41.450Z,13.70
2023-04-20T13:11:09.072Z,13.35
2023-04-20T13:13:35.987Z,11.68
2023-04-20T13:16:03.099Z,12.73
2023-04-20T13:18:29.985Z,13.23
2023-04-20T13:20:56.704Z,15.07
2023-04-20T13:23:23.901Z,13.20
2023-04-20T13:25:52.115Z,12.85
2023-04-20T13:28:19.688Z,12.02
2023-04-20T13:30:47.635Z,14.18
2023-04-20T13:33:14.585Z,13.30
2023-04-20T13:35:41.643Z,14.70
2023-04-20T13:38:08.827Z,14.10
2023-04-20T13:40:35.813Z,13.68
2023-04-20T13:43:02.840Z,16.15
2023-04-20T13:45:29.930Z,16.48
2023-04-20T13:47:57.640Z,16.77
2023-04-20T13:50:31.675Z,17.38
2023-04-20T13:52:58.845Z,20.17
2023-04-20T13:55:27.063Z,15.43
2023-04-20T13:57:54.494Z,16.75
2023-04-20T14:00:23.703Z,16.35
2023-04-20T14:02:51.093Z,23.02
2023-04-20T14:05:18.113Z,15.68
2023-04-20T14:07:44.978Z,16.73
2023-04-20T14:10:11.820Z,16.70
2023-04-20T14:12:38.757Z,23.05
2023-04-20T14:15:05.981Z,16.67
2023-04-20T14:17:32.945Z,19.23
2023-04-20T14:20:15.277Z,16.60
2023-04-20T14:22:50.707Z,24.00
2023-04-20T14:25:22.861Z,25.05
2023-04-20T14:27:50.769Z,18.50
2023-04-20T14:30:17.678Z,16.80
2023-04-20T14:32:53.773Z,30.38
2023-04-20T14:35:20.842Z,23.92
2023-04-20T14:37:47.652Z,19.73
2023-04-20T14:40:15.746Z,18.20
2023-04-20T14:42:42.980Z,19.63
2023-04-20T14:45:11.567Z,14.70
2023-04-20T14:47:38.403Z,22.20
2023-04-20T14:50:05.954Z,23.42
2023-04-20T14:52:33.376Z,26.05
2023-04-20T14:55:00.449Z,20.90
2023-04-20T14:57:27.900Z,36.38
2023-04-20T14:59:54.820Z,18.88
2023-04-20T15:02:22.282Z,19.42
2023-04-20T15:05:10.521Z,18.40
2023-04-20T15:07:38.083Z,16.55
2023-04-20T15:10:05.706Z,16.90
2023-04-20T15:12:32.435Z,15.70
2023-04-20T15:14:59.365Z,15.43
2023-04-20T15:17:26.610Z,15.10
2023-04-20T15:19:53.461Z,18.52
2023-04-20T15:22:20.241Z,16.23
2023-04-20T15:24:55.320Z,25.58
2023-04-20T15:27:22.416Z,23.27
2023-04-20T15:29:49.268Z,18.58
2023-04-20T15:32:16.124Z,23.33
2023-04-20T15:34:42.925Z,21.95
2023-04-20T15:37:10.797Z,19.13
2023-04-20T15:39:37.586Z,19.67
2023-04-20T15:42:04.613Z,17.27
2023-04-20T15:44:31.352Z,21.98
2023-04-20T15:46:58.524Z,24.23
2023-04-20T15:49:25.406Z,17.98
2023-04-20T15:51:52.109Z,20.25
2023-04-20T15:54:23.762Z,18.80
2023-04-20T15:56:51.188Z,33.33
2023-04-20T15:59:18.468Z,22.05
2023-04-20T16:01:45.654Z,27.65
2023-04-20T16:04:13.769Z,28.90
2023-04-20T16:06:41.097Z,30.50
2023-04-20T16:09:07.871Z,37.58
2023-04-20T16:11:35.342Z,17.85
2023-04-20T16:14:02.351Z,17.77
2023-04-20T16:16:29.422Z,22.60
2023-04-20T16:18:56.233Z,21.15
2023-04-20T16:21:23.395Z,23.08
2023-04-20T16:23:54.012Z,27.80
2023-04-20T16:26:21.013Z,28.10
2023-04-20T16:28:51.937Z,30.05
2023-04-20T16:31:18.781Z,28.25
2023-04-20T16:33:46.235Z,25.13
2023-04-20T16:36:13.038Z,34.80
2023-04-20T16:38:39.944Z,35.38
2023-04-20T16:41:06.698Z,37.53
2023-04-20T16:43:33.435Z,37.47
2023-04-20T16:46:00.349Z,23.63
2023-04-20T16:48:27.021Z,24.77
2023-04-20T16:50:54.243Z,19.40
2023-04-20T16:53:21.236Z,18.30
2023-04-20T16:55:47.922Z,23.23
2023-04-20T16:58:14.596Z,28.65
2023-04-20T17:00:41.252Z,18.95
2023-04-20T17:03:10.544Z,21.58
2023-04-20T17:05:40.332Z,17.60
2023-04-20T17:08:08.751Z,22.50
2023-04-20T17:10:37.315Z,31.00
2023-04-20T17:13:04.361Z,20.42
2023-04-20T17:15:31.357Z,21.40
2023-04-20T17:17:58.401Z,22.90
2023-04-20T17:20:25.826Z,27.83
2023-04-20T17:22:53.140Z,20.85
2023-04-20T17:25:19.914Z,20.30
2023-04-20T17:27:46.674Z,18.13
2023-04-20T17:30:13.731Z,27.98
2023-04-20T17:32:48.348Z,23.33
2023-04-20T17:35:15.296Z,16.88
2023-04-20T17:37:50.293Z,17.42
2023-04-20T17:40:27.960Z,17.50
2023-04-20T17:43:14.102Z,17.53
2023-04-20T17:45:53.037Z,25.05
2023-04-20T17:48:35.535Z,16.33
2023-04-20T17:51:14.051Z,16.20
2023-04-20T17:53:47.829Z,15.63
2023-04-20T17:56:14.657Z,16.20
2023-04-20T17:58:41.397Z,18.70
2023-04-20T18:01:08.331Z,14.80
2023-04-20T18:03:49.093Z,17.83
2023-04-20T18:06:16.790Z,17.70
2023-04-20T18:08:43.711Z,16.42
2023-04-20T18:11:10.606Z,18.88
2023-04-20T18:13:37.510Z,23.20
2023-04-20T18:16:07.339Z,18.55
2023-04-20T18:18:35.483Z,20.83
2023-04-20T18:21:06.111Z,18.88
2023-04-20T18:23:36.128Z,22.17
2023-04-20T18:26:03.334Z,20.90
2023-04-20T18:28:30.758Z,20.73
2023-04-20T18:30:58.991Z,19.17
2023-04-20T18:33:26.574Z,18.55
2023-04-20T18:35:53.933Z,21.25
2023-04-20T18:38:25.761Z,22.15
2023-04-20T18:40:55.469Z,18.38
2023-04-20T18:43:22.618Z,27.35
2023-04-20T18:45:49.772Z,17.67
2023-04-20T18:48:19.182Z,16.58
2023-04-20T18:50:47.992Z,18.17
2023-04-20T18:53:16.117Z,18.63
2023-04-20T18:55:48.649Z,18.20
2023-04-20T18:58:15.387Z,19.63
2023-04-20T19:00:46.554Z,19.90
2023-04-20T19:03:14.488Z,17.65
2023-04-20T19:05:42.037Z,21.92
2023-04-20T19:08:09.086Z,18.88
2023-04-20T19:10:45.618Z,19.83
2023-04-20T19:13:17.816Z,20.02
2023-04-20T19:15:47.829Z,20.23
2023-04-20T19:18:16.212Z,20.33
2023-04-20T19:20:43.425Z,20.75
2023-04-20T19:23:10.757Z,18.98
2023-04-20T19:26:28.389Z,21.88
2023-04-20T19:28:57.825Z,21.27
2023-04-20T19:31:27.626Z,19.67
2023-04-20T19:34:22.304Z,19.00
2023-04-20T19:36:49.280Z,21.85
2023-04-20T19:42:07.838Z,17.98
2023-04-20T19:44:36.484Z,18.25
2023-04-20T19:47:06.868Z,18.77
2023-04-20T19:49:54.507Z,19.67
2023-04-20T19:52:52.810Z,18.88
2023-04-20T19:55:20.112Z,18.83
2023-04-20T19:57:47.680Z,19.60
2023-04-20T20:00:15.903Z,20.30
2023-04-20T20:02:45.455Z,20.67
2023-04-20T20:05:13.336Z,18.30
2023-04-20T20:07:40.264Z,19.17
2023-04-20T20:10:07.442Z,19.77
2023-04-20T20:12:34.763Z,19.52
2023-04-20T20:15:03.487Z,19.90
2023-04-20T20:17:36.255Z,19.52
2023-04-20T20:20:08.031Z,20.55
2023-04-20T20:22:34.928Z,20.95
2023-04-20T20:25:01.716Z,20.55
2023-04-20T20:27:28.813Z,21.50
2023-04-20T20:29:55.836Z,21.73
2023-04-20T20:32:22.845Z,21.42
2023-04-20T20:34:50.187Z,22.90
2023-04-20T20:37:17.023Z,23.73
2023-04-20T20:39:44.198Z,27.88
2023-04-20T20:42:12.327Z,23.77
2023-04-20T20:44:40.179Z,27.23
2023-04-20T20:47:06.943Z,24.50
2023-04-20T20:49:34.009Z,23.98
2023-04-20T20:52:02.366Z,25.30
2023-04-20T20:54:29.047Z,25.30
2023-04-20T20:56:56.102Z,24.42
2023-04-20T20:59:22.961Z,25.40
2023-04-20T21:01:49.883Z,28.30
2023-04-20T21:04:16.781Z,24.38
2023-04-20T21:06:44.050Z,25.35
2023-04-20T21:09:11.067Z,23.40
2023-04-20T21:11:38.409Z,25.73
2023-04-20T21:14:05.548Z,27.75
2023-04-20T21:16:32.450Z,24.33
2023-04-20T21:18:59.435Z,22.80
2023-04-20T21:21:27.506Z,25.52
2023-04-20T21:23:54.468Z,26.48
2023-04-20T21:26:28.585Z,26.63
2023-04-20T21:28:55.482Z,24.00
2023-04-20T21:31:22.301Z,23.65
2023-04-20T21:33:49.154Z,24.75
2023-04-20T21:36:16.092Z,25.63
2023-04-20T21:38:42.960Z,25.33
2023-04-20T21:41:09.766Z,25.33
2023-04-20T21:43:36.596Z,25.25
2023-04-20T21:46:04.151Z,24.42
2023-04-20T21:48:31.299Z,25.92
2023-04-20T21:50:58.336Z,24.27
2023-04-20T21:53:25.226Z,25.48
2023-04-20T21:55:52.027Z,26.25
2023-04-20T21:58:18.735Z,25.95
2023-04-20T22:00:45.482Z,23.17
2023-04-20T22:03:12.314Z,22.45
2023-04-20T22:05:39.280Z,24.65
2023-04-20T22:08:06.100Z,23.90
2023-04-20T22:10:32.806Z,23.63
2023-04-20T22:12:59.619Z,22.58
2023-04-20T22:15:27.625Z,22.45
2023-04-20T22:17:54.831Z,21.35
2023-04-20T22:20:22.458Z,22.08
2023-04-20T22:22:49.345Z,25.80
2023-04-20T22:25:16.265Z,22.40
2023-04-20T22:27:43.080Z,26.08
2023-04-20T22:30:10.128Z,21.67
2023-04-20T22:32:37.635Z,18.48
2023-04-20T22:35:04.548Z,19.80
2023-04-20T22:37:31.333Z,19.73
2023-04-20T22:39:58.047Z,19.50
2023-04-20T22:42:24.828Z,20.52
2023-04-20T22:44:51.752Z,18.75
2023-04-20T22:47:18.727Z,19.42
2023-04-20T22:49:45.577Z,18.05
2023-04-20T22:52:12.586Z,18.25
2023-04-20T22:54:40.458Z,17.58
2023-04-20T22:57:07.203Z,17.73
2023-04-20T22:59:33.922Z,20.85
2023-04-20T23:02:00.683Z,18.13
2023-04-20T23:04:27.465Z,17.98
2023-04-20T23:06:56.028Z,19.02
2023-04-20T23:09:22.781Z,18.63
2023-04-20T23:11:50.916Z,17.58
2023-04-20T23:14:18.040Z,18.70
2023-04-20T23:16:45.122Z,16.40
2023-04-20T23:19:11.858Z,16.23
2023-04-20T23:21:38.592Z,15.63
2023-04-20T23:24:05.410Z,16.52
2023-04-20T23:26:32.395Z,15.73
2023-04-20T23:28:59.224Z,15.05
2023-04-20T23:31:26.324Z,16.30
2023-04-20T23:33:53.119Z,15.55
2023-04-20T23:36:19.964Z,14.55
2023-04-20T23:38:46.819Z,15.70
2023-04-20T23:41:14.818Z,17.73
2023-04-20T23:43:41.850Z,16.60
2023-04-20T23:46:09.022Z,15.95
2023-04-20T23:48:35.857Z,16.75
2023-04-20T23:51:02.595Z,14.65
2023-04-20T23:53:29.322Z,16.27
2023-04-20T23:55:56.004Z,16.15
2023-04-20T23:58:24.960Z,15.25
